createdAt,value
2023-11-27T00:01:45.943Z,12.23
2023-11-27T00:04:17.986Z,12.60
2023-11-27T00:06:49.771Z,13.18
2023-11-27T00:09:22.697Z,13.52
2023-11-27T00:11:54.492Z,11.43
2023-11-27T00:14:26.268Z,12.95
2023-11-27T00:16:58.175Z,12.82
2023-11-27T00:19:29.979Z,12.80
2023-11-27T00:22:01.772Z,12.27
2023-11-27T00:24:33.627Z,12.60
2023-11-27T00:27:05.476Z,11.93
2023-11-27T00:29:37.391Z,12.20
2023-11-27T00:32:10.359Z,13.20
2023-11-27T00:34:42.492Z,12.80
2023-11-27T00:37:14.321Z,12.77
2023-11-27T00:39:46.188Z,12.30
2023-11-27T00:42:19.369Z,12.40
2023-11-27T00:44:51.124Z,11.75
2023-11-27T00:47:22.896Z,12.65
2023-11-27T00:49:54.829Z,12.32
2023-11-27T00:52:26.647Z,10.98
2023-11-27T00:54:58.461Z,11.93
2023-11-27T00:57:30.355Z,13.02
2023-11-27T01:00:02.142Z,11.68
2023-11-27T01:02:34.023Z,13.10
2023-11-27T01:05:08.933Z,12.30
2023-11-27T01:07:40.904Z,13.50
2023-11-27T01:10:12.668Z,13.20
2023-11-27T01:12:47.455Z,12.80
2023-11-27T01:15:20.850Z,13.60
2023-11-27T01:17:52.626Z,13.73
2023-11-27T01:20:24.400Z,13.10
2023-11-27T01:22:56.364Z,13.75
2023-11-27T01:25:28.125Z,14.68
2023-11-27T01:28:00.014Z,12.70
2023-11-27T01:30:31.824Z,12.80
2023-11-27T01:33:05.698Z,14.02
2023-11-27T01:35:37.639Z,12.73
2023-11-27T01:38:09.400Z,12.20
2023-11-27T01:40:41.213Z,12.50
2023-11-27T01:43:16.879Z,14.63
2023-11-27T01:45:50.583Z,12.75
2023-11-27T01:48:22.392Z,12.75
2023-11-27T01:50:54.223Z,13.10
2023-11-27T01:53:26.083Z,13.43
2023-11-27T01:55:57.894Z,12.02
2023-11-27T01:58:29.894Z,12.52
2023-11-27T02:01:01.879Z,13.70
2023-11-27T02:03:33.821Z,13.80
2023-11-27T02:06:06.041Z,12.77
2023-11-27T02:08:37.835Z,13.93
2023-11-27T02:11:09.622Z,13.13
2023-11-27T02:13:41.387Z,13.85
2023-11-27T02:16:13.303Z,14.45
2023-11-27T02:18:45.241Z,13.95
2023-11-27T02:21:19.071Z,14.00
2023-11-27T02:23:50.930Z,13.93
2023-11-27T02:26:23.098Z,13.55
2023-11-27T02:28:55.926Z,15.85
2023-11-27T02:31:29.248Z,13.82
2023-11-27T02:34:01.628Z,15.20
2023-11-27T02:36:39.917Z,14.85
2023-11-27T02:39:11.798Z,15.10
2023-11-27T02:41:43.605Z,15.05
2023-11-27T02:44:15.738Z,15.82
2023-11-27T02:46:47.941Z,15.32
2023-11-27T02:49:19.787Z,15.48
2023-11-27T02:51:51.595Z,16.77
2023-11-27T02:54:23.453Z,16.00
2023-11-27T02:56:55.274Z,15.93
2023-11-27T02:59:27.054Z,16.15
2023-11-27T03:01:58.902Z,17.42
2023-11-27T03:04:32.202Z,17.73
2023-11-27T03:07:04.227Z,16.00
2023-11-27T03:09:36.016Z,16.73
2023-11-27T03:12:08.034Z,17.27
2023-11-27T03:14:39.917Z,17.02
2023-11-27T03:17:11.739Z,17.60
2023-11-27T03:19:47.968Z,16.90
2023-11-27T03:22:21.876Z,16.30
2023-11-27T03:24:53.734Z,16.17
2023-11-27T03:27:25.570Z,17.90
2023-11-27T03:29:59.149Z,16.25
2023-11-27T03:32:32.269Z,17.50
2023-11-27T03:35:05.945Z,17.35
2023-11-27T03:37:37.837Z,18.27
2023-11-27T03:40:10.020Z,17.85
2023-11-27T03:42:42.509Z,18.15
2023-11-27T03:45:14.357Z,17.08
2023-11-27T03:47:46.173Z,19.15
2023-11-27T03:50:18.043Z,18.25
2023-11-27T03:52:49.883Z,17.85
2023-11-27T03:55:21.649Z,17.60
2023-11-27T03:57:53.482Z,17.38
2023-11-27T04:00:26.791Z,17.40
2023-11-27T04:02:58.601Z,18.20
2023-11-27T04:05:30.391Z,15.95
2023-11-27T04:08:02.433Z,16.77
2023-11-27T04:10:34.287Z,17.60
2023-11-27T04:13:06.380Z,16.45
2023-11-27T04:15:38.305Z,19.15
2023-11-27T04:18:10.525Z,17.50
2023-11-27T04:20:42.473Z,17.98
2023-11-27T04:23:14.277Z,17.85
2023-11-27T04:25:46.026Z,17.00
2023-11-27T04:28:17.826Z,16.67
2023-11-27T04:30:49.708Z,17.88
2023-11-27T04:33:21.566Z,17.52
2023-11-27T04:35:55.162Z,16.33
2023-11-27T04:38:27.022Z,16.35
2023-11-27T04:40:58.804Z,16.60
2023-11-27T04:43:30.623Z,16.83
2023-11-27T04:46:02.491Z,16.38
2023-11-27T04:48:35.089Z,18.75
2023-11-27T04:51:07.296Z,19.10
2023-11-27T04:53:39.061Z,18.48
2023-11-27T04:56:12.089Z,16.92
2023-11-27T04:58:45.060Z,17.13
2023-11-27T05:01:16.888Z,16.50
2023-11-27T05:03:48.782Z,17.73
2023-11-27T05:06:20.620Z,16.52
2023-11-27T05:08:52.394Z,18.77
2023-11-27T05:11:25.097Z,18.63
2023-11-27T05:13:56.923Z,16.70
2023-11-27T05:16:28.744Z,20.05
2023-11-27T05:19:00.705Z,19.65
2023-11-27T05:21:32.500Z,18.60
2023-11-27T05:24:04.476Z,18.38
2023-11-27T05:26:36.248Z,19.23
2023-11-27T05:29:08.545Z,18.00
2023-11-27T05:31:40.452Z,20.10
2023-11-27T05:34:12.522Z,18.95
2023-11-27T05:36:44.758Z,18.60
2023-11-27T05:39:16.973Z,18.42
2023-11-27T05:41:50.946Z,17.75
2023-11-27T05:44:22.718Z,18.08
2023-11-27T05:46:54.639Z,17.13
2023-11-27T05:49:26.589Z,17.85
2023-11-27T05:51:59.303Z,18.80
2023-11-27T05:54:31.323Z,20.15
2023-11-27T05:57:03.843Z,19.33
2023-11-27T05:59:35.613Z,18.88
2023-11-27T06:02:07.886Z,18.95
2023-11-27T06:04:39.682Z,20.08
2023-11-27T06:07:11.466Z,20.10
2023-11-27T06:09:43.833Z,19.77
2023-11-27T06:12:16.067Z,20.27
2023-11-27T06:14:47.836Z,20.50
2023-11-27T06:17:19.784Z,20.35
2023-11-27T06:19:51.567Z,20.65
2023-11-27T06:22:24.794Z,20.27
2023-11-27T06:24:58.088Z,19.85
2023-11-27T06:27:30.319Z,21.95
2023-11-27T06:30:02.132Z,22.42
2023-11-27T06:32:35.318Z,20.67
2023-11-27T06:35:07.655Z,23.02
2023-11-27T06:37:39.436Z,21.85
2023-11-27T06:40:11.415Z,21.63
2023-11-27T06:42:43.232Z,22.52
2023-11-27T06:45:15.052Z,21.50
2023-11-27T06:47:46.854Z,22.05
2023-11-27T06:50:22.305Z,21.85
2023-11-27T06:52:54.231Z,21.23
2023-11-27T06:55:26.010Z,22.30
2023-11-27T07:00:33.160Z,22.05
2023-11-27T07:03:05.220Z,21.08
2023-11-27T07:05:37.179Z,20.80
2023-11-27T07:08:09.285Z,21.38
2023-11-27T07:10:41.305Z,21.70
2023-11-27T07:13:13.388Z,22.33
2023-11-27T07:15:45.202Z,21.92
2023-11-27T07:18:20.055Z,22.95
2023-11-27T07:20:53.382Z,22.15
2023-11-27T07:23:28.307Z,22.55
2023-11-27T07:26:00.133Z,21.10
2023-11-27T07:28:31.964Z,22.80
2023-11-27T07:31:04.460Z,21.45
2023-11-27T07:33:36.286Z,23.42
2023-11-27T07:36:08.689Z,22.50
2023-11-27T07:38:42.161Z,23.38
2023-11-27T07:41:14.460Z,22.30
2023-11-27T07:43:46.385Z,22.02
2023-11-27T07:46:18.477Z,22.58
2023-11-27T07:48:50.433Z,22.25
2023-11-27T07:51:22.189Z,21.08
2023-11-27T07:53:53.939Z,21.73
2023-11-27T07:56:29.885Z,22.27
2023-11-27T07:59:01.735Z,19.58
2023-11-27T08:01:33.578Z,19.35
2023-11-27T08:04:05.551Z,19.75
2023-11-27T08:06:37.487Z,20.42
2023-11-27T08:09:09.377Z,19.63
2023-11-27T08:11:43.380Z,19.45
2023-11-27T08:14:15.238Z,18.90
2023-11-27T08:16:49.075Z,19.65
2023-11-27T08:19:22.340Z,17.75
2023-11-27T08:21:55.178Z,16.95
2023-11-27T08:24:26.967Z,17.45
2023-11-27T08:26:59.089Z,17.40
2023-11-27T08:29:32.308Z,17.23
2023-11-27T08:32:04.497Z,17.58
2023-11-27T08:34:36.319Z,18.33
2023-11-27T08:37:11.019Z,16.92
2023-11-27T08:39:42.866Z,17.92
2023-11-27T08:42:14.650Z,16.02
2023-11-27T08:44:46.416Z,17.27
2023-11-27T08:47:18.720Z,19.25
2023-11-27T08:49:50.549Z,17.83
2023-11-27T08:52:22.348Z,16.17
2023-11-27T08:54:56.730Z,16.38
2023-11-27T08:57:28.585Z,17.67
2023-11-27T09:00:00.406Z,15.55
2023-11-27T09:02:32.342Z,17.05
2023-11-27T09:05:05.060Z,17.30
2023-11-27T09:07:36.902Z,17.73
2023-11-27T09:10:09.277Z,15.07
2023-11-27T09:12:41.062Z,15.05
2023-11-27T09:15:12.830Z,14.00
2023-11-27T09:17:45.674Z,16.27
2023-11-27T09:20:17.937Z,15.52
2023-11-27T09:22:49.779Z,15.48
2023-11-27T09:25:22.341Z,14.98
2023-11-27T09:27:54.132Z,16.02
2023-11-27T09:30:26.015Z,14.32
2023-11-27T09:32:57.844Z,14.02
2023-11-27T09:35:29.703Z,14.73
2023-11-27T09:38:02.136Z,15.00
2023-11-27T09:40:40.559Z,15.10
2023-11-27T09:43:12.581Z,13.88
2023-11-27T09:45:44.372Z,14.80
2023-11-27T09:48:18.644Z,13.73
2023-11-27T09:50:55.838Z,13.93
2023-11-27T09:53:31.051Z,14.00
2023-11-27T09:56:04.237Z,13.02
2023-11-27T09:58:44.076Z,13.63
2023-11-27T10:01:17.112Z,13.60
2023-11-27T10:03:49.314Z,13.95
2023-11-27T10:06:21.250Z,13.57
2023-11-27T10:09:09.246Z,12.88
2023-11-27T10:11:43.051Z,12.48
2023-11-27T10:14:34.995Z,15.48
2023-11-27T10:17:07.475Z,15.55
2023-11-27T10:19:41.478Z,12.93
2023-11-27T10:22:13.486Z,14.07
2023-11-27T10:24:45.822Z,12.40
2023-11-27T10:27:17.626Z,10.77
2023-11-27T10:29:49.452Z,11.20
2023-11-27T10:32:26.827Z,11.32
2023-11-27T10:34:59.128Z,10.52
2023-11-27T10:37:36.952Z,11.02
2023-11-27T10:40:15.751Z,10.90
2023-11-27T10:42:52.101Z,10.60
2023-11-27T10:45:23.919Z,10.25
2023-11-27T10:47:58.289Z,12.68
2023-11-27T10:50:35.570Z,14.48
2023-11-27T10:53:08.556Z,12.20
2023-11-27T10:55:43.595Z,10.35
2023-11-27T10:58:15.665Z,13.88
2023-11-27T11:00:57.608Z,14.70
2023-11-27T11:03:33.800Z,11.85
2023-11-27T11:06:09.831Z,10.48
2023-11-27T11:08:44.949Z,11.48
2023-11-27T11:11:19.183Z,12.25
2023-11-27T11:13:52.547Z,11.43
2023-11-27T11:16:41.737Z,10.40
2023-11-27T11:19:38.288Z,10.07
2023-11-27T11:22:10.047Z,10.18
2023-11-27T11:25:21.470Z,10.25
2023-11-27T11:28:07.472Z,11.27
2023-11-27T11:30:39.558Z,10.02
2023-11-27T11:33:20.052Z,11.02
2023-11-27T11:38:24.184Z,10.98
2023-11-27T11:40:57.743Z,12.25
2023-11-27T11:43:29.912Z,11.70
2023-11-27T11:46:01.901Z,10.65
2023-11-27T11:48:38.413Z,12.95
2023-11-27T11:51:17.167Z,9.73
2023-11-27T11:53:53.335Z,10.48
2023-11-27T11:56:30.271Z,11.73
2023-11-27T11:59:11.251Z,11.20
2023-11-27T12:01:43.082Z,11.17
2023-11-27T12:04:15.341Z,9.82
2023-11-27T12:06:47.434Z,11.50
2023-11-27T12:09:20.158Z,10.65
2023-11-27T12:11:59.286Z,11.02
2023-11-27T12:14:34.124Z,11.82
2023-11-27T12:17:08.718Z,13.23
2023-11-27T12:19:40.716Z,11.23
2023-11-27T12:22:13.175Z,12.05
2023-11-27T12:24:47.308Z,13.10
2023-11-27T12:27:19.123Z,13.65
2023-11-27T12:29:51.182Z,12.88
2023-11-27T12:32:26.212Z,12.60
2023-11-27T12:34:58.111Z,12.52
2023-11-27T12:37:30.923Z,12.05
2023-11-27T12:40:03.908Z,13.50
2023-11-27T12:42:37.407Z,12.65
2023-11-27T12:45:09.962Z,13.95
2023-11-27T12:47:51.404Z,13.70
2023-11-27T12:50:30.463Z,14.55
2023-11-27T12:53:08.558Z,14.38
2023-11-27T12:55:49.083Z,14.70
2023-11-27T12:58:22.796Z,14.73
2023-11-27T13:00:57.694Z,14.45
2023-11-27T13:03:32.302Z,13.77
2023-11-27T13:06:04.570Z,15.02
2023-11-27T13:08:36.342Z,12.35
2023-11-27T13:11:08.133Z,14.52
2023-11-27T13:13:41.033Z,13.02
2023-11-27T13:16:18.707Z,13.40
2023-11-27T13:18:50.603Z,15.32
2023-11-27T13:21:23.182Z,13.38
2023-11-27T13:23:54.965Z,14.43
2023-11-27T13:26:29.902Z,14.88
2023-11-27T13:29:02.081Z,16.70
2023-11-27T13:31:38.249Z,15.77
2023-11-27T13:34:33.380Z,15.68
2023-11-27T13:37:11.832Z,15.85
2023-11-27T13:39:55.970Z,15.73
2023-11-27T13:42:32.356Z,15.48
2023-11-27T13:45:05.057Z,17.73
2023-11-27T13:47:37.798Z,17.55
2023-11-27T13:50:10.858Z,17.80
2023-11-27T13:52:44.158Z,18.92
2023-11-27T13:55:19.172Z,19.50
2023-11-27T13:57:53.336Z,20.90
2023-11-27T14:00:27.835Z,19.67
2023-11-27T14:03:03.849Z,19.48
2023-11-27T14:05:38.935Z,20.08
2023-11-27T14:08:16.726Z,21.90
2023-11-27T14:11:09.805Z,23.27
2023-11-27T14:13:47.608Z,19.58
2023-11-27T14:16:21.419Z,23.38
2023-11-27T14:19:13.275Z,23.20
2023-11-27T14:22:03.499Z,22.27
2023-11-27T14:24:55.531Z,23.23
2023-11-27T14:27:40.888Z,25.48
2023-11-27T14:30:16.277Z,25.23
2023-11-27T14:32:48.821Z,23.75
2023-11-27T14:35:21.427Z,24.45
2023-11-27T14:37:53.518Z,24.77
2023-11-27T14:40:32.585Z,25.30
2023-11-27T14:43:04.483Z,38.53
2023-11-27T14:45:43.706Z,39.33
2023-11-27T14:48:17.134Z,59.30
2023-11-27T14:50:49.000Z,39.80
2023-11-27T14:53:22.599Z,34.22
2023-11-27T14:55:54.420Z,31.58
2023-11-27T14:58:26.607Z,32.47
2023-11-27T15:01:03.292Z,33.00
2023-11-27T15:03:36.140Z,31.92
2023-11-27T15:06:09.132Z,34.83
2023-11-27T15:08:40.955Z,34.67
2023-11-27T15:11:14.056Z,35.97
2023-11-27T15:13:46.772Z,41.17
2023-11-27T15:16:21.719Z,36.40
2023-11-27T15:18:53.854Z,32.53
2023-11-27T15:21:25.840Z,42.35
2023-11-27T15:23:57.681Z,36.20
2023-11-27T15:26:29.425Z,40.97
2023-11-27T15:29:01.245Z,39.45
2023-11-27T15:31:36.711Z,38.72
2023-11-27T15:34:11.359Z,37.63
2023-11-27T15:36:43.154Z,45.95
2023-11-27T15:39:24.565Z,34.05
2023-11-27T15:41:57.380Z,31.25
2023-11-27T15:44:29.207Z,42.38
2023-11-27T15:47:02.047Z,42.95
2023-11-27T15:49:34.459Z,44.40
2023-11-27T15:52:07.900Z,50.53
2023-11-27T15:54:40.218Z,48.08
2023-11-27T15:57:12.134Z,45.85
2023-11-27T15:59:44.806Z,35.72
2023-11-27T16:02:16.785Z,40.78
2023-11-27T16:04:48.652Z,40.92
2023-11-27T16:07:22.096Z,42.38
2023-11-27T16:09:53.879Z,46.38
2023-11-27T16:12:29.258Z,46.92
2023-11-27T16:15:01.035Z,39.40
2023-11-27T16:17:47.434Z,48.22
2023-11-27T16:20:26.074Z,39.45
2023-11-27T16:22:58.061Z,34.47
2023-11-27T16:25:29.858Z,36.90
2023-11-27T16:28:05.477Z,33.22
2023-11-27T16:30:37.319Z,30.33
2023-11-27T16:33:09.442Z,31.55
2023-11-27T16:35:42.728Z,32.22
2023-11-27T16:38:14.605Z,35.47
2023-11-27T16:40:46.623Z,41.10
2023-11-27T16:43:18.514Z,32.38
2023-11-27T16:45:50.353Z,32.42
2023-11-27T16:48:22.687Z,31.13
2023-11-27T16:50:54.490Z,32.05
2023-11-27T16:53:29.339Z,39.58
2023-11-27T16:56:03.046Z,39.20
2023-11-27T16:58:34.868Z,33.75
2023-11-27T17:01:08.018Z,37.67
2023-11-27T17:03:43.189Z,31.95
2023-11-27T17:06:15.354Z,41.05
2023-11-27T17:08:47.937Z,39.72
2023-11-27T17:11:19.768Z,47.08
2023-11-27T17:13:51.752Z,57.60
2023-11-27T17:16:25.072Z,52.55
2023-11-27T17:18:57.305Z,58.28
2023-11-27T17:21:29.442Z,65.68
2023-11-27T17:24:01.486Z,53.75
2023-11-27T17:26:33.387Z,63.97
2023-11-27T17:29:05.354Z,58.00
2023-11-27T17:31:37.142Z,56.30
2023-11-27T17:34:08.961Z,44.17
2023-11-27T17:36:40.775Z,42.63
2023-11-27T17:39:14.948Z,47.67
2023-11-27T17:41:47.520Z,46.95
2023-11-27T17:44:20.674Z,40.33
2023-11-27T17:46:52.632Z,40.40
2023-11-27T17:49:24.460Z,39.72
2023-11-27T17:51:57.368Z,80.28
2023-11-27T17:54:29.185Z,53.88
2023-11-27T17:57:00.940Z,53.30
2023-11-27T17:59:32.803Z,53.60
2023-11-27T18:02:07.014Z,47.15
2023-11-27T18:04:40.293Z,48.70
2023-11-27T18:07:12.112Z,51.05
2023-11-27T18:09:44.541Z,43.47
2023-11-27T18:12:16.673Z,44.45
2023-11-27T18:14:48.943Z,46.92
2023-11-27T18:17:21.156Z,42.20
2023-11-27T18:19:53.040Z,38.13
2023-11-27T18:22:25.093Z,36.67
2023-11-27T18:24:56.884Z,37.80
2023-11-27T18:27:28.664Z,39.58
2023-11-27T18:30:00.583Z,55.03
2023-11-27T18:32:32.901Z,63.25
2023-11-27T18:35:05.183Z,61.05
2023-11-27T18:37:37.379Z,56.13
2023-11-27T18:40:15.512Z,45.22
2023-11-27T18:42:52.188Z,49.53
2023-11-27T18:45:25.678Z,48.47
2023-11-27T18:47:58.027Z,48.88
2023-11-27T18:50:29.886Z,46.55
2023-11-27T18:53:02.153Z,54.08
2023-11-27T18:55:34.091Z,56.03
2023-11-27T18:58:05.947Z,56.38
2023-11-27T19:00:37.767Z,55.20
2023-11-27T19:03:10.601Z,54.47
2023-11-27T19:05:42.451Z,52.45
2023-11-27T19:08:14.267Z,56.28
2023-11-27T19:10:46.090Z,60.17
2023-11-27T19:13:17.973Z,57.22
2023-11-27T19:15:52.845Z,51.75
2023-11-27T19:18:25.610Z,47.53
2023-11-27T19:20:57.422Z,43.58
2023-11-27T19:23:29.520Z,45.53
2023-11-27T19:26:01.589Z,47.42
2023-11-27T19:28:35.794Z,46.63
2023-11-27T19:31:08.196Z,43.75
2023-11-27T19:33:39.999Z,42.65
2023-11-27T19:36:22.118Z,44.85
2023-11-27T19:38:54.223Z,46.33
2023-11-27T19:41:25.996Z,51.13
2023-11-27T19:43:57.917Z,47.40
2023-11-27T19:46:29.787Z,46.22
2023-11-27T19:49:03.292Z,44.35
2023-11-27T19:51:35.145Z,46.10
2023-11-27T19:54:07.539Z,44.42
2023-11-27T19:56:40.967Z,40.25
2023-11-27T19:59:12.876Z,41.67
2023-11-27T20:01:44.767Z,42.83
2023-11-27T20:04:16.566Z,43.58
2023-11-27T20:06:48.408Z,43.42
2023-11-27T20:09:20.347Z,41.55
2023-11-27T20:11:54.164Z,41.17
2023-11-27T20:14:25.948Z,45.60
2023-11-27T20:16:59.588Z,42.22
2023-11-27T20:19:31.432Z,40.13
2023-11-27T20:22:04.723Z,43.13
2023-11-27T20:24:36.895Z,46.53
2023-11-27T20:27:08.687Z,39.65
2023-11-27T20:29:46.280Z,42.67
2023-11-27T20:32:18.184Z,47.88
2023-11-27T20:34:50.224Z,39.15
2023-11-27T20:37:22.071Z,44.58
2023-11-27T20:39:54.316Z,44.53
2023-11-27T20:42:26.086Z,43.78
2023-11-27T20:44:57.847Z,45.90
2023-11-27T20:47:30.499Z,47.50
2023-11-27T20:50:02.484Z,44.60
2023-11-27T20:52:34.590Z,40.67
2023-11-27T20:55:08.439Z,37.67
2023-11-27T20:57:41.580Z,43.78
2023-11-27T21:00:13.796Z,43.25
2023-11-27T21:02:46.557Z,42.65
2023-11-27T21:05:18.349Z,40.95
2023-11-27T21:07:50.165Z,44.00
2023-11-27T21:10:22.312Z,44.20
2023-11-27T21:12:54.335Z,43.38
2023-11-27T21:15:26.789Z,43.78
2023-11-27T21:17:58.833Z,48.22
2023-11-27T21:20:30.761Z,47.40
2023-11-27T21:23:02.634Z,41.42
2023-11-27T21:25:35.073Z,42.50
2023-11-27T21:28:06.934Z,40.55
2023-11-27T21:30:38.994Z,40.13
2023-11-27T21:33:10.841Z,41.97
2023-11-27T21:35:42.725Z,43.08
2023-11-27T21:38:14.562Z,52.83
2023-11-27T21:40:46.448Z,55.67
2023-11-27T21:43:19.207Z,58.83
2023-11-27T21:45:51.094Z,48.75
2023-11-27T21:48:23.486Z,41.65
2023-11-27T21:50:55.617Z,39.53
2023-11-27T21:53:27.377Z,41.00
2023-11-27T21:55:59.253Z,42.83
2023-11-27T21:58:31.091Z,50.03
2023-11-27T22:01:15.519Z,54.92
2023-11-27T22:03:49.582Z,58.80
2023-11-27T22:06:21.433Z,55.60
2023-11-27T22:08:53.193Z,46.90
2023-11-27T22:11:25.216Z,45.60
2023-11-27T22:13:57.123Z,44.47
2023-11-27T22:16:29.119Z,45.33
2023-11-27T22:19:01.449Z,45.65
2023-11-27T22:21:33.405Z,45.83
2023-11-27T22:24:05.908Z,43.63
2023-11-27T22:26:42.260Z,43.50
2023-11-27T22:29:14.076Z,43.03
2023-11-27T22:31:45.932Z,45.00
2023-11-27T22:34:18.882Z,41.50
2023-11-27T22:36:50.669Z,42.50
2023-11-27T22:39:25.151Z,45.15
2023-11-27T22:41:56.962Z,49.15
2023-11-27T22:44:28.755Z,55.95
2023-11-27T22:47:00.918Z,52.05
2023-11-27T22:49:32.733Z,48.67
2023-11-27T22:52:04.785Z,52.67
2023-11-27T22:54:42.997Z,50.42
2023-11-27T22:57:15.243Z,51.08
2023-11-27T22:59:47.240Z,48.33
2023-11-27T23:02:19.441Z,51.00
2023-11-27T23:04:51.400Z,54.53
2023-11-27T23:07:23.423Z,57.00
2023-11-27T23:09:55.293Z,57.90
2023-11-27T23:12:27.654Z,59.65
2023-11-27T23:14:59.759Z,57.30
2023-11-27T23:17:31.642Z,57.90
2023-11-27T23:20:03.615Z,55.45
2023-11-27T23:22:35.734Z,59.58
2023-11-27T23:25:07.830Z,57.80
2023-11-27T23:27:39.632Z,63.03
2023-11-27T23:30:12.163Z,62.40
2023-11-27T23:32:44.328Z,63.05
2023-11-27T23:35:16.139Z,58.58
2023-11-27T23:37:48.416Z,55.10
2023-11-27T23:40:20.348Z,47.30
2023-11-27T23:42:52.170Z,46.90
2023-11-27T23:45:23.939Z,50.88
2023-11-27T23:47:56.958Z,49.03
2023-11-27T23:50:28.780Z,49.15
2023-11-27T23:53:06.476Z,51.65
2023-11-27T23:55:40.274Z,54.53
2023-11-27T23:58:12.393Z,56.22
